sensor_id;sensor_type;location;lat;lon;timestamp;temperature;humidity
5130;DHT22;2583;50.946;6.954;2022-10-30T00:00:46;18.00;99.90
5130;DHT22;2583;50.946;6.954;2022-10-30T00:03:14;18.00;99.90
5130;DHT22;2583;50.946;6.954;2022-10-30T00:05:42;18.00;99.90
5130;DHT22;2583;50.946;6.954;2022-10-30T00:08:11;18.00;99.90
5130;DHT22;2583;50.946;6.954;2022-10-30T00:10:39;18.00;99.90
5130;DHT22;2583;50.946;6.954;2022-10-30T00:13:06;18.00;99.90
5130;DHT22;2583;50.946;6.954;2022-10-30T00:15:33;18.00;99.90
5130;DHT22;2583;50.946;6.954;2022-10-30T00:18:00;18.00;99.90
5130;DHT22;2583;50.946;6.954;2022-10-30T00:20:27;18.00;99.90
5130;DHT22;2583;50.946;6.954;2022-10-30T00:22:54;17.90;99.90
5130;DHT22;2583;50.946;6.954;2022-10-30T00:25:22;17.90;99.90
5130;DHT22;2583;50.946;6.954;2022-10-30T00:27:49;17.90;99.90
5130;DHT22;2583;50.946;6.954;2022-10-30T00:30:15;17.90;99.90
5130;DHT22;2583;50.946;6.954;2022-10-30T00:32:44;17.90;99.90
5130;DHT22;2583;50.946;6.954;2022-10-30T00:35:11;17.90;99.90
5130;DHT22;2583;50.946;6.954;2022-10-30T00:37:38;17.80;99.90
5130;DHT22;2583;50.946;6.954;2022-10-30T00:40:05;17.80;99.90
5130;DHT22;2583;50.946;6.954;2022-10-30T00:42:32;17.80;99.90
5130;DHT22;2583;50.946;6.954;2022-10-30T00:44:59;17.80;99.90
5130;DHT22;2583;50.946;6.954;2022-10-30T00:47:30;17.80;99.90
5130;DHT22;2583;50.946;6.954;2022-10-30T00:52:37;17.80;99.90
5130;DHT22;2583;50.946;6.954;2022-10-30T00:55:13;17.80;99.90
5130;DHT22;2583;50.946;6.954;2022-10-30T00:57:41;17.80;99.90
5130;DHT22;2583;50.946;6.954;2022-10-30T01:00:11;17.80;99.90
5130;DHT22;2583;50.946;6.954;2022-10-30T01:02:39;17.70;99.90
5130;DHT22;2583;50.946;6.954;2022-10-30T01:05:06;17.70;99.90
5130;DHT22;2583;50.946;6.954;2022-10-30T01:07:33;17.70;99.90
5130;DHT22;2583;50.946;6.954;2022-10-30T01:10:00;17.70;99.90
5130;DHT22;2583;50.946;6.954;2022-10-30T01:12:27;17.70;99.90
5130;DHT22;2583;50.946;6.954;2022-10-30T01:14:55;17.70;99.90
5130;DHT22;2583;50.946;6.954;2022-10-30T01:31:40;17.70;99.90
5130;DHT22;2583;50.946;6.954;2022-10-30T01:34:19;17.60;99.90
5130;DHT22;2583;50.946;6.954;2022-10-30T01:37:09;17.60;99.90
5130;DHT22;2583;50.946;6.954;2022-10-30T01:39:40;17.60;99.90
5130;DHT22;2583;50.946;6.954;2022-10-30T01:45:17;17.50;99.90
5130;DHT22;2583;50.946;6.954;2022-10-30T01:47:49;17.50;99.90
5130;DHT22;2583;50.946;6.954;2022-10-30T01:53:19;17.40;99.90
5130;DHT22;2583;50.946;6.954;2022-10-30T01:56:01;17.40;99.90
5130;DHT22;2583;50.946;6.954;2022-10-30T01:58:40;17.30;99.90
5130;DHT22;2583;50.946;6.954;2022-10-30T02:01:09;17.30;99.90
5130;DHT22;2583;50.946;6.954;2022-10-30T02:03:37;17.20;99.90
5130;DHT22;2583;50.946;6.954;2022-10-30T02:06:04;17.20;99.90
5130;DHT22;2583;50.946;6.954;2022-10-30T02:08:31;17.20;99.90
5130;DHT22;2583;50.946;6.954;2022-10-30T02:10:58;17.10;99.90
5130;DHT22;2583;50.946;6.954;2022-10-30T02:13:25;17.10;99.90
5130;DHT22;2583;50.946;6.954;2022-10-30T02:15:52;17.10;99.90
5130;DHT22;2583;50.946;6.954;2022-10-30T02:18:19;17.10;99.90
5130;DHT22;2583;50.946;6.954;2022-10-30T02:20:46;17.00;99.90
5130;DHT22;2583;50.946;6.954;2022-10-30T02:23:14;17.00;99.90
5130;DHT22;2583;50.946;6.954;2022-10-30T02:25:44;17.00;99.90
5130;DHT22;2583;50.946;6.954;2022-10-30T02:28:11;16.90;99.90
5130;DHT22;2583;50.946;6.954;2022-10-30T02:30:39;16.80;99.90
5130;DHT22;2583;50.946;6.954;2022-10-30T02:33:09;16.80;99.90
5130;DHT22;2583;50.946;6.954;2022-10-30T02:35:36;16.80;99.90
5130;DHT22;2583;50.946;6.954;2022-10-30T02:38:03;16.60;99.90
5130;DHT22;2583;50.946;6.954;2022-10-30T02:40:30;16.50;99.90
5130;DHT22;2583;50.946;6.954;2022-10-30T02:42:57;16.50;99.90
5130;DHT22;2583;50.946;6.954;2022-10-30T02:45:24;16.60;99.90
5130;DHT22;2583;50.946;6.954;2022-10-30T02:47:51;16.50;99.90
5130;DHT22;2583;50.946;6.954;2022-10-30T02:50:17;16.50;99.90
5130;DHT22;2583;50.946;6.954;2022-10-30T02:52:44;16.50;99.90
5130;DHT22;2583;50.946;6.954;2022-10-30T02:55:11;16.60;99.90
5130;DHT22;2583;50.946;6.954;2022-10-30T02:57:37;16.50;99.90
5130;DHT22;2583;50.946;6.954;2022-10-30T03:00:05;16.50;99.90
5130;DHT22;2583;50.946;6.954;2022-10-30T03:02:31;16.40;99.90
5130;DHT22;2583;50.946;6.954;2022-10-30T03:04:58;16.50;99.90
5130;DHT22;2583;50.946;6.954;2022-10-30T03:07:25;16.40;99.90
5130;DHT22;2583;50.946;6.954;2022-10-30T03:09:52;16.40;99.90
5130;DHT22;2583;50.946;6.954;2022-10-30T03:12:20;16.40;99.90
5130;DHT22;2583;50.946;6.954;2022-10-30T03:14:47;16.40;99.90
5130;DHT22;2583;50.946;6.954;2022-10-30T03:17:14;16.40;99.90
5130;DHT22;2583;50.946;6.954;2022-10-30T03:19:41;16.40;99.90
5130;DHT22;2583;50.946;6.954;2022-10-30T03:22:07;16.30;99.90
5130;DHT22;2583;50.946;6.954;2022-10-30T03:24:34;16.30;99.90
5130;DHT22;2583;50.946;6.954;2022-10-30T03:27:01;16.30;99.90
5130;DHT22;2583;50.946;6.954;2022-10-30T03:29:28;16.30;99.90
5130;DHT22;2583;50.946;6.954;2022-10-30T03:31:55;16.30;99.90
5130;DHT22;2583;50.946;6.954;2022-10-30T03:34:22;16.30;99.90
5130;DHT22;2583;50.946;6.954;2022-10-30T03:36:48;16.30;99.90
5130;DHT22;2583;50.946;6.954;2022-10-30T03:39:15;16.20;99.90
5130;DHT22;2583;50.946;6.954;2022-10-30T03:41:42;16.20;99.90
5130;DHT22;2583;50.946;6.954;2022-10-30T03:44:09;16.20;99.90
5130;DHT22;2583;50.946;6.954;2022-10-30T03:46:35;16.20;99.90
5130;DHT22;2583;50.946;6.954;2022-10-30T03:49:03;16.20;99.90
5130;DHT22;2583;50.946;6.954;2022-10-30T03:51:30;16.20;99.90
5130;DHT22;2583;50.946;6.954;2022-10-30T03:53:56;16.20;99.90
5130;DHT22;2583;50.946;6.954;2022-10-30T03:56:23;16.20;99.90
5130;DHT22;2583;50.946;6.954;2022-10-30T03:58:50;16.20;99.90
5130;DHT22;2583;50.946;6.954;2022-10-30T04:01:16;16.10;99.90
5130;DHT22;2583;50.946;6.954;2022-10-30T04:03:43;16.10;99.90
5130;DHT22;2583;50.946;6.954;2022-10-30T04:06:10;16.10;99.90
5130;DHT22;2583;50.946;6.954;2022-10-30T04:08:37;16.10;99.90
5130;DHT22;2583;50.946;6.954;2022-10-30T04:11:04;16.10;99.90
5130;DHT22;2583;50.946;6.954;2022-10-30T04:13:31;16.10;99.90
5130;DHT22;2583;50.946;6.954;2022-10-30T04:15:57;16.00;99.90
5130;DHT22;2583;50.946;6.954;2022-10-30T04:18:25;16.10;99.90
5130;DHT22;2583;50.946;6.954;2022-10-30T04:20:52;16.00;99.90
5130;DHT22;2583;50.946;6.954;2022-10-30T04:23:20;16.00;99.90
5130;DHT22;2583;50.946;6.954;2022-10-30T04:25:47;16.00;99.90
5130;DHT22;2583;50.946;6.954;2022-10-30T04:28:15;16.00;99.90
5130;DHT22;2583;50.946;6.954;2022-10-30T04:30:42;16.00;99.90
5130;DHT22;2583;50.946;6.954;2022-10-30T04:33:11;16.00;99.90
5130;DHT22;2583;50.946;6.954;2022-10-30T04:35:39;16.00;99.90
5130;DHT22;2583;50.946;6.954;2022-10-30T04:38:11;16.00;99.90
5130;DHT22;2583;50.946;6.954;2022-10-30T04:40:40;16.00;99.90
5130;DHT22;2583;50.946;6.954;2022-10-30T04:43:08;16.00;99.90
5130;DHT22;2583;50.946;6.954;2022-10-30T04:45:35;15.90;99.90
5130;DHT22;2583;50.946;6.954;2022-10-30T04:48:08;15.90;99.90
5130;DHT22;2583;50.946;6.954;2022-10-30T04:50:35;15.80;99.90
5130;DHT22;2583;50.946;6.954;2022-10-30T04:53:05;15.80;99.90
5130;DHT22;2583;50.946;6.954;2022-10-30T04:55:32;15.80;99.90
5130;DHT22;2583;50.946;6.954;2022-10-30T04:57:59;15.70;99.90
5130;DHT22;2583;50.946;6.954;2022-10-30T05:00:29;15.70;99.90
5130;DHT22;2583;50.946;6.954;2022-10-30T05:03:02;15.70;99.90
5130;DHT22;2583;50.946;6.954;2022-10-30T05:05:30;15.70;99.90
5130;DHT22;2583;50.946;6.954;2022-10-30T05:07:57;15.70;99.90
5130;DHT22;2583;50.946;6.954;2022-10-30T05:10:24;15.70;99.90
5130;DHT22;2583;50.946;6.954;2022-10-30T05:12:52;15.70;99.90
5130;DHT22;2583;50.946;6.954;2022-10-30T05:15:19;15.70;99.90
5130;DHT22;2583;50.946;6.954;2022-10-30T05:17:50;15.70;99.90
5130;DHT22;2583;50.946;6.954;2022-10-30T05:20:18;15.70;99.90
5130;DHT22;2583;50.946;6.954;2022-10-30T05:22:45;15.60;99.90
5130;DHT22;2583;50.946;6.954;2022-10-30T05:25:12;15.60;99.90
5130;DHT22;2583;50.946;6.954;2022-10-30T05:27:38;15.50;99.90
5130;DHT22;2583;50.946;6.954;2022-10-30T05:30:06;15.50;99.90
5130;DHT22;2583;50.946;6.954;2022-10-30T05:32:32;15.50;99.90
5130;DHT22;2583;50.946;6.954;2022-10-30T05:34:59;15.50;99.90
5130;DHT22;2583;50.946;6.954;2022-10-30T05:37:26;15.50;99.90
5130;DHT22;2583;50.946;6.954;2022-10-30T05:39:52;15.40;99.90
5130;DHT22;2583;50.946;6.954;2022-10-30T05:42:19;15.50;99.90
5130;DHT22;2583;50.946;6.954;2022-10-30T05:44:46;15.40;99.90
5130;DHT22;2583;50.946;6.954;2022-10-30T05:47:27;15.50;99.90
5130;DHT22;2583;50.946;6.954;2022-10-30T05:49:53;15.40;99.90
5130;DHT22;2583;50.946;6.954;2022-10-30T05:52:20;15.40;99.90
5130;DHT22;2583;50.946;6.954;2022-10-30T05:54:47;15.40;99.90
5130;DHT22;2583;50.946;6.954;2022-10-30T05:57:13;15.40;99.90
5130;DHT22;2583;50.946;6.954;2022-10-30T05:59:40;15.30;99.90
5130;DHT22;2583;50.946;6.954;2022-10-30T06:02:07;15.30;99.90
5130;DHT22;2583;50.946;6.954;2022-10-30T06:04:34;15.30;99.90
5130;DHT22;2583;50.946;6.954;2022-10-30T06:07:00;15.30;99.90
5130;DHT22;2583;50.946;6.954;2022-10-30T06:09:27;15.20;99.90
5130;DHT22;2583;50.946;6.954;2022-10-30T06:11:54;15.20;99.90
5130;DHT22;2583;50.946;6.954;2022-10-30T06:14:21;15.20;99.90
5130;DHT22;2583;50.946;6.954;2022-10-30T06:16:47;15.20;99.90
5130;DHT22;2583;50.946;6.954;2022-10-30T06:19:14;15.10;99.90
5130;DHT22;2583;50.946;6.954;2022-10-30T06:21:44;15.10;99.90
5130;DHT22;2583;50.946;6.954;2022-10-30T06:24:12;15.10;99.90
5130;DHT22;2583;50.946;6.954;2022-10-30T06:26:39;15.10;99.90
5130;DHT22;2583;50.946;6.954;2022-10-30T06:29:06;15.00;99.90
5130;DHT22;2583;50.946;6.954;2022-10-30T06:31:32;15.00;99.90
5130;DHT22;2583;50.946;6.954;2022-10-30T06:33:59;15.00;99.90
5130;DHT22;2583;50.946;6.954;2022-10-30T06:36:26;15.00;99.90
5130;DHT22;2583;50.946;6.954;2022-10-30T06:38:53;15.00;99.90
5130;DHT22;2583;50.946;6.954;2022-10-30T06:41:20;15.00;99.90
5130;DHT22;2583;50.946;6.954;2022-10-30T06:43:54;15.00;99.90
5130;DHT22;2583;50.946;6.954;2022-10-30T06:46:21;15.00;99.90
5130;DHT22;2583;50.946;6.954;2022-10-30T06:48:54;15.10;99.90
5130;DHT22;2583;50.946;6.954;2022-10-30T06:51:21;15.00;99.90
5130;DHT22;2583;50.946;6.954;2022-10-30T06:53:48;15.00;99.90
5130;DHT22;2583;50.946;6.954;2022-10-30T06:56:14;15.00;99.90
5130;DHT22;2583;50.946;6.954;2022-10-30T06:58:41;15.00;99.90
5130;DHT22;2583;50.946;6.954;2022-10-30T07:01:08;15.00;99.90
5130;DHT22;2583;50.946;6.954;2022-10-30T07:03:35;15.10;99.90
5130;DHT22;2583;50.946;6.954;2022-10-30T07:06:02;15.10;99.90
5130;DHT22;2583;50.946;6.954;2022-10-30T07:08:29;15.10;99.90
5130;DHT22;2583;50.946;6.954;2022-10-30T07:10:56;15.10;99.90
5130;DHT22;2583;50.946;6.954;2022-10-30T07:13:24;15.10;99.90
5130;DHT22;2583;50.946;6.954;2022-10-30T07:15:50;15.20;99.90
5130;DHT22;2583;50.946;6.954;2022-10-30T07:18:17;15.20;99.90
5130;DHT22;2583;50.946;6.954;2022-10-30T07:20:44;15.20;99.90
5130;DHT22;2583;50.946;6.954;2022-10-30T07:23:10;15.30;99.90
5130;DHT22;2583;50.946;6.954;2022-10-30T07:25:37;15.30;99.90
5130;DHT22;2583;50.946;6.954;2022-10-30T07:28:04;15.30;99.90
5130;DHT22;2583;50.946;6.954;2022-10-30T07:30:31;15.30;99.90
5130;DHT22;2583;50.946;6.954;2022-10-30T07:33:03;15.30;99.90
5130;DHT22;2583;50.946;6.954;2022-10-30T07:35:31;15.30;99.90
5130;DHT22;2583;50.946;6.954;2022-10-30T07:38:06;15.30;99.90
5130;DHT22;2583;50.946;6.954;2022-10-30T07:40:33;15.30;99.90
5130;DHT22;2583;50.946;6.954;2022-10-30T07:43:01;15.30;99.90
5130;DHT22;2583;50.946;6.954;2022-10-30T07:45:29;15.30;99.90
5130;DHT22;2583;50.946;6.954;2022-10-30T07:47:56;15.30;99.90
5130;DHT22;2583;50.946;6.954;2022-10-30T07:50:24;15.30;99.90
5130;DHT22;2583;50.946;6.954;2022-10-30T07:52:50;15.30;99.90
5130;DHT22;2583;50.946;6.954;2022-10-30T07:55:17;15.30;99.90
5130;DHT22;2583;50.946;6.954;2022-10-30T07:57:44;15.40;99.90
5130;DHT22;2583;50.946;6.954;2022-10-30T08:00:12;15.40;99.90
5130;DHT22;2583;50.946;6.954;2022-10-30T08:02:39;15.40;99.90
5130;DHT22;2583;50.946;6.954;2022-10-30T08:05:07;15.50;99.90
5130;DHT22;2583;50.946;6.954;2022-10-30T08:07:36;15.50;99.90
5130;DHT22;2583;50.946;6.954;2022-10-30T08:10:03;15.60;99.90
5130;DHT22;2583;50.946;6.954;2022-10-30T08:12:32;15.60;99.90
5130;DHT22;2583;50.946;6.954;2022-10-30T08:15:00;15.70;99.90
5130;DHT22;2583;50.946;6.954;2022-10-30T08:17:26;15.80;99.90
5130;DHT22;2583;50.946;6.954;2022-10-30T08:19:54;15.90;99.90
5130;DHT22;2583;50.946;6.954;2022-10-30T08:22:22;16.10;99.90
5130;DHT22;2583;50.946;6.954;2022-10-30T08:24:49;16.30;99.90
5130;DHT22;2583;50.946;6.954;2022-10-30T08:27:16;16.50;99.90
5130;DHT22;2583;50.946;6.954;2022-10-30T08:29:43;16.70;99.90
5130;DHT22;2583;50.946;6.954;2022-10-30T08:32:09;16.80;99.90
5130;DHT22;2583;50.946;6.954;2022-10-30T08:34:36;16.90;99.90
5130;DHT22;2583;50.946;6.954;2022-10-30T08:37:03;16.80;99.90
5130;DHT22;2583;50.946;6.954;2022-10-30T08:39:29;16.80;99.90
5130;DHT22;2583;50.946;6.954;2022-10-30T08:41:57;16.90;99.90
5130;DHT22;2583;50.946;6.954;2022-10-30T08:44:25;16.90;99.90
5130;DHT22;2583;50.946;6.954;2022-10-30T08:46:52;17.00;99.90
5130;DHT22;2583;50.946;6.954;2022-10-30T08:49:19;17.00;99.90
5130;DHT22;2583;50.946;6.954;2022-10-30T08:51:45;17.00;99.90
5130;DHT22;2583;50.946;6.954;2022-10-30T08:54:12;17.00;99.90
5130;DHT22;2583;50.946;6.954;2022-10-30T08:56:39;17.10;99.90
5130;DHT22;2583;50.946;6.954;2022-10-30T08:59:06;17.10;99.90
5130;DHT22;2583;50.946;6.954;2022-10-30T09:01:32;17.20;99.90
5130;DHT22;2583;50.946;6.954;2022-10-30T09:03:59;17.20;99.90
5130;DHT22;2583;50.946;6.954;2022-10-30T09:06:26;17.30;99.90
5130;DHT22;2583;50.946;6.954;2022-10-30T09:08:53;17.30;99.90
5130;DHT22;2583;50.946;6.954;2022-10-30T09:11:20;17.30;99.90
5130;DHT22;2583;50.946;6.954;2022-10-30T09:13:46;17.40;99.90
5130;DHT22;2583;50.946;6.954;2022-10-30T09:16:13;17.40;99.90
5130;DHT22;2583;50.946;6.954;2022-10-30T09:18:40;17.50;99.90
5130;DHT22;2583;50.946;6.954;2022-10-30T09:21:07;17.50;99.90
5130;DHT22;2583;50.946;6.954;2022-10-30T09:23:34;17.60;99.90
5130;DHT22;2583;50.946;6.954;2022-10-30T09:26:00;17.70;99.90
5130;DHT22;2583;50.946;6.954;2022-10-30T09:28:27;17.80;99.90
5130;DHT22;2583;50.946;6.954;2022-10-30T09:30:54;17.80;99.90
5130;DHT22;2583;50.946;6.954;2022-10-30T09:33:22;18.00;99.70
5130;DHT22;2583;50.946;6.954;2022-10-30T09:35:49;18.10;99.40
5130;DHT22;2583;50.946;6.954;2022-10-30T09:38:16;18.10;98.60
5130;DHT22;2583;50.946;6.954;2022-10-30T09:40:50;18.20;97.60
5130;DHT22;2583;50.946;6.954;2022-10-30T09:43:57;18.30;98.10
5130;DHT22;2583;50.946;6.954;2022-10-30T09:55:04;18.60;94.90
5130;DHT22;2583;50.946;6.954;2022-10-30T10:00:08;18.80;94.50
5130;DHT22;2583;50.946;6.954;2022-10-30T10:05:28;19.10;92.10
5130;DHT22;2583;50.946;6.954;2022-10-30T10:08:03;19.30;91.90
5130;DHT22;2583;50.946;6.954;2022-10-30T10:12:59;19.50;86.50
5130;DHT22;2583;50.946;6.954;2022-10-30T10:16:32;19.60;85.70
5130;DHT22;2583;50.946;6.954;2022-10-30T10:18:44;19.70;86.00
5130;DHT22;2583;50.946;6.954;2022-10-30T10:21:30;19.80;82.30
5130;DHT22;2583;50.946;6.954;2022-10-30T10:24:01;19.80;80.20
5130;DHT22;2583;50.946;6.954;2022-10-30T10:26:48;19.80;81.00
5130;DHT22;2583;50.946;6.954;2022-10-30T10:29:31;19.90;79.30
5130;DHT22;2583;50.946;6.954;2022-10-30T10:49:29;20.40;74.90
5130;DHT22;2583;50.946;6.954;2022-10-30T10:51:46;20.50;72.40
5130;DHT22;2583;50.946;6.954;2022-10-30T10:54:44;20.60;69.20
5130;DHT22;2583;50.946;6.954;2022-10-30T10:57:25;20.70;67.50
5130;DHT22;2583;50.946;6.954;2022-10-30T10:59:57;20.80;65.60
5130;DHT22;2583;50.946;6.954;2022-10-30T11:02:50;20.80;65.10
5130;DHT22;2583;50.946;6.954;2022-10-30T11:05:40;20.90;65.00
5130;DHT22;2583;50.946;6.954;2022-10-30T11:08:30;20.90;62.40
5130;DHT22;2583;50.946;6.954;2022-10-30T11:11:00;20.90;60.90
5130;DHT22;2583;50.946;6.954;2022-10-30T11:13:40;21.00;62.80
5130;DHT22;2583;50.946;6.954;2022-10-30T11:16:21;21.10;59.80
5130;DHT22;2583;50.946;6.954;2022-10-30T11:19:02;21.10;59.00
5130;DHT22;2583;50.946;6.954;2022-10-30T11:21:34;21.20;56.70
5130;DHT22;2583;50.946;6.954;2022-10-30T11:24:03;21.20;56.30
5130;DHT22;2583;50.946;6.954;2022-10-30T11:26:50;21.20;57.10
5130;DHT22;2583;50.946;6.954;2022-10-30T11:29:22;21.30;56.70
5130;DHT22;2583;50.946;6.954;2022-10-30T11:32:01;21.40;55.40
5130;DHT22;2583;50.946;6.954;2022-10-30T11:34:37;21.40;54.40
5130;DHT22;2583;50.946;6.954;2022-10-30T11:37:04;21.40;54.20
5130;DHT22;2583;50.946;6.954;2022-10-30T11:39:34;21.40;53.80
5130;DHT22;2583;50.946;6.954;2022-10-30T11:42:16;21.40;53.40
5130;DHT22;2583;50.946;6.954;2022-10-30T11:44:50;21.50;52.30
5130;DHT22;2583;50.946;6.954;2022-10-30T11:47:20;21.60;51.10
5130;DHT22;2583;50.946;6.954;2022-10-30T11:49:58;21.70;50.50
5130;DHT22;2583;50.946;6.954;2022-10-30T11:52:26;21.80;49.00
5130;DHT22;2583;50.946;6.954;2022-10-30T11:55:02;22.00;49.80
5130;DHT22;2583;50.946;6.954;2022-10-30T11:57:55;22.10;47.70
5130;DHT22;2583;50.946;6.954;2022-10-30T12:00:28;22.20;47.60
5130;DHT22;2583;50.946;6.954;2022-10-30T12:02:58;22.30;46.10
5130;DHT22;2583;50.946;6.954;2022-10-30T12:13:18;22.30;44.30
5130;DHT22;2583;50.946;6.954;2022-10-30T12:15:47;22.30;44.40
5130;DHT22;2583;50.946;6.954;2022-10-30T12:18:21;22.40;45.10
5130;DHT22;2583;50.946;6.954;2022-10-30T12:20:55;22.50;44.50
5130;DHT22;2583;50.946;6.954;2022-10-30T12:23:25;22.60;43.90
5130;DHT22;2583;50.946;6.954;2022-10-30T12:26:14;22.70;43.90
5130;DHT22;2583;50.946;6.954;2022-10-30T12:28:52;22.80;42.10
5130;DHT22;2583;50.946;6.954;2022-10-30T12:31:29;22.80;41.40
5130;DHT22;2583;50.946;6.954;2022-10-30T12:34:03;22.90;42.00
5130;DHT22;2583;50.946;6.954;2022-10-30T12:36:34;23.00;41.80
5130;DHT22;2583;50.946;6.954;2022-10-30T12:39:16;23.00;41.00
5130;DHT22;2583;50.946;6.954;2022-10-30T12:42:06;22.90;41.10
5130;DHT22;2583;50.946;6.954;2022-10-30T12:44:38;22.90;40.90
5130;DHT22;2583;50.946;6.954;2022-10-30T12:47:28;22.80;40.70
5130;DHT22;2583;50.946;6.954;2022-10-30T12:50:00;22.90;41.20
5130;DHT22;2583;50.946;6.954;2022-10-30T12:52:33;22.90;39.90
5130;DHT22;2583;50.946;6.954;2022-10-30T13:06:50;23.10;38.90
5130;DHT22;2583;50.946;6.954;2022-10-30T13:09:26;23.20;38.70
5130;DHT22;2583;50.946;6.954;2022-10-30T13:12:20;23.30;39.10
5130;DHT22;2583;50.946;6.954;2022-10-30T13:14:51;23.40;37.70
5130;DHT22;2583;50.946;6.954;2022-10-30T13:17:19;23.40;36.70
5130;DHT22;2583;50.946;6.954;2022-10-30T13:19:46;23.30;35.50
5130;DHT22;2583;50.946;6.954;2022-10-30T13:22:54;23.40;35.20
5130;DHT22;2583;50.946;6.954;2022-10-30T13:25:39;23.50;33.60
5130;DHT22;2583;50.946;6.954;2022-10-30T13:28:24;23.70;34.80
5130;DHT22;2583;50.946;6.954;2022-10-30T13:31:25;23.80;33.00
5130;DHT22;2583;50.946;6.954;2022-10-30T13:34:00;24.00;32.60
5130;DHT22;2583;50.946;6.954;2022-10-30T13:36:45;24.20;31.80
5130;DHT22;2583;50.946;6.954;2022-10-30T13:42:06;24.30;30.40
5130;DHT22;2583;50.946;6.954;2022-10-30T13:53:01;24.20;29.70
5130;DHT22;2583;50.946;6.954;2022-10-30T13:55:30;24.10;29.10
5130;DHT22;2583;50.946;6.954;2022-10-30T13:58:28;23.80;29.40
5130;DHT22;2583;50.946;6.954;2022-10-30T14:11:17;22.90;31.90
5130;DHT22;2583;50.946;6.954;2022-10-30T14:13:55;22.90;32.60
5130;DHT22;2583;50.946;6.954;2022-10-30T14:16:44;22.80;32.80
5130;DHT22;2583;50.946;6.954;2022-10-30T14:19:16;22.70;33.40
5130;DHT22;2583;50.946;6.954;2022-10-30T14:24:21;22.60;34.60
5130;DHT22;2583;50.946;6.954;2022-10-30T14:43:32;21.90;38.80
5130;DHT22;2583;50.946;6.954;2022-10-30T14:46:14;21.80;39.50
5130;DHT22;2583;50.946;6.954;2022-10-30T14:49:08;21.80;40.60
5130;DHT22;2583;50.946;6.954;2022-10-30T14:51:41;21.70;41.40
5130;DHT22;2583;50.946;6.954;2022-10-30T14:56:49;21.50;42.40
5130;DHT22;2583;50.946;6.954;2022-10-30T15:07:59;21.30;44.00
5130;DHT22;2583;50.946;6.954;2022-10-30T15:10:34;21.30;44.40
5130;DHT22;2583;50.946;6.954;2022-10-30T15:13:21;21.20;44.40
5130;DHT22;2583;50.946;6.954;2022-10-30T15:15:59;21.20;45.10
5130;DHT22;2583;50.946;6.954;2022-10-30T15:18:27;21.20;45.80
5130;DHT22;2583;50.946;6.954;2022-10-30T15:21:03;21.10;46.10
5130;DHT22;2583;50.946;6.954;2022-10-30T15:23:33;21.00;47.10
5130;DHT22;2583;50.946;6.954;2022-10-30T15:26:04;21.00;47.50
5130;DHT22;2583;50.946;6.954;2022-10-30T15:28:36;21.00;48.30
5130;DHT22;2583;50.946;6.954;2022-10-30T15:33:43;20.90;48.50
5130;DHT22;2583;50.946;6.954;2022-10-30T15:36:17;20.90;49.10
5130;DHT22;2583;50.946;6.954;2022-10-30T15:38:44;20.90;48.90
5130;DHT22;2583;50.946;6.954;2022-10-30T15:41:27;20.90;49.00
5130;DHT22;2583;50.946;6.954;2022-10-30T15:43:55;20.90;49.60
5130;DHT22;2583;50.946;6.954;2022-10-30T15:46:23;20.80;49.50
5130;DHT22;2583;50.946;6.954;2022-10-30T15:48:50;20.80;49.90
5130;DHT22;2583;50.946;6.954;2022-10-30T15:51:22;20.80;50.00
5130;DHT22;2583;50.946;6.954;2022-10-30T15:53:57;20.70;49.10
5130;DHT22;2583;50.946;6.954;2022-10-30T15:56:31;20.70;49.40
5130;DHT22;2583;50.946;6.954;2022-10-30T15:59:05;20.70;49.70
5130;DHT22;2583;50.946;6.954;2022-10-30T16:01:41;20.60;48.50
5130;DHT22;2583;50.946;6.954;2022-10-30T16:06:49;20.50;47.50
5130;DHT22;2583;50.946;6.954;2022-10-30T16:09:16;20.50;47.90
5130;DHT22;2583;50.946;6.954;2022-10-30T16:11:44;20.40;47.60
5130;DHT22;2583;50.946;6.954;2022-10-30T16:14:18;20.30;47.10
5130;DHT22;2583;50.946;6.954;2022-10-30T16:16:46;20.30;46.90
5130;DHT22;2583;50.946;6.954;2022-10-30T16:19:25;20.20;47.30
5130;DHT22;2583;50.946;6.954;2022-10-30T16:21:55;20.20;48.10
5130;DHT22;2583;50.946;6.954;2022-10-30T16:24:30;20.10;47.50
5130;DHT22;2583;50.946;6.954;2022-10-30T16:27:15;20.10;47.70
5130;DHT22;2583;50.946;6.954;2022-10-30T16:29:45;20.00;48.00
5130;DHT22;2583;50.946;6.954;2022-10-30T16:32:15;20.00;48.20
5130;DHT22;2583;50.946;6.954;2022-10-30T16:34:44;20.00;49.30
5130;DHT22;2583;50.946;6.954;2022-10-30T16:37:17;19.90;50.30
5130;DHT22;2583;50.946;6.954;2022-10-30T16:39:45;19.80;50.40
5130;DHT22;2583;50.946;6.954;2022-10-30T16:42:18;19.80;51.70
5130;DHT22;2583;50.946;6.954;2022-10-30T16:44:46;19.80;51.80
5130;DHT22;2583;50.946;6.954;2022-10-30T16:52:15;19.70;53.80
5130;DHT22;2583;50.946;6.954;2022-10-30T16:54:59;19.70;54.80
5130;DHT22;2583;50.946;6.954;2022-10-30T16:57:28;19.60;55.30
5130;DHT22;2583;50.946;6.954;2022-10-30T16:59:56;19.60;51.90
5130;DHT22;2583;50.946;6.954;2022-10-30T17:02:33;19.60;54.40
5130;DHT22;2583;50.946;6.954;2022-10-30T17:05:13;19.50;55.60
5130;DHT22;2583;50.946;6.954;2022-10-30T17:07:59;19.40;53.80
5130;DHT22;2583;50.946;6.954;2022-10-30T17:10:44;19.50;52.70
5130;DHT22;2583;50.946;6.954;2022-10-30T17:13:38;19.40;52.20
5130;DHT22;2583;50.946;6.954;2022-10-30T17:16:24;19.40;53.20
5130;DHT22;2583;50.946;6.954;2022-10-30T17:18:53;19.40;52.90
5130;DHT22;2583;50.946;6.954;2022-10-30T17:21:37;19.40;53.60
5130;DHT22;2583;50.946;6.954;2022-10-30T17:24:15;19.30;54.20
5130;DHT22;2583;50.946;6.954;2022-10-30T17:26:56;19.30;53.80
5130;DHT22;2583;50.946;6.954;2022-10-30T17:29:43;19.20;53.70
5130;DHT22;2583;50.946;6.954;2022-10-30T17:32:23;19.20;53.70
5130;DHT22;2583;50.946;6.954;2022-10-30T17:35:00;19.20;53.80
5130;DHT22;2583;50.946;6.954;2022-10-30T17:37:28;19.20;54.30
5130;DHT22;2583;50.946;6.954;2022-10-30T17:39:54;19.10;55.30
5130;DHT22;2583;50.946;6.954;2022-10-30T17:42:21;19.10;54.40
5130;DHT22;2583;50.946;6.954;2022-10-30T17:44:48;19.10;54.40
5130;DHT22;2583;50.946;6.954;2022-10-30T17:47:19;19.10;53.60
5130;DHT22;2583;50.946;6.954;2022-10-30T17:49:46;19.10;53.30
5130;DHT22;2583;50.946;6.954;2022-10-30T17:52:17;19.10;52.40
5130;DHT22;2583;50.946;6.954;2022-10-30T17:54:45;19.10;52.50
5130;DHT22;2583;50.946;6.954;2022-10-30T17:57:13;19.10;54.60
5130;DHT22;2583;50.946;6.954;2022-10-30T17:59:42;19.00;52.50
5130;DHT22;2583;50.946;6.954;2022-10-30T18:04:40;19.00;53.40
5130;DHT22;2583;50.946;6.954;2022-10-30T18:07:10;19.00;53.60
5130;DHT22;2583;50.946;6.954;2022-10-30T18:09:38;19.00;54.30
5130;DHT22;2583;50.946;6.954;2022-10-30T18:12:06;19.00;55.90
5130;DHT22;2583;50.946;6.954;2022-10-30T18:14:33;18.80;57.50
5130;DHT22;2583;50.946;6.954;2022-10-30T18:17:00;18.80;56.90
5130;DHT22;2583;50.946;6.954;2022-10-30T18:19:27;18.80;56.20
5130;DHT22;2583;50.946;6.954;2022-10-30T18:21:54;18.80;56.40
5130;DHT22;2583;50.946;6.954;2022-10-30T18:24:21;18.80;56.50
5130;DHT22;2583;50.946;6.954;2022-10-30T18:26:47;18.70;57.40
5130;DHT22;2583;50.946;6.954;2022-10-30T18:29:14;18.70;56.90
5130;DHT22;2583;50.946;6.954;2022-10-30T18:31:41;18.80;60.10
5130;DHT22;2583;50.946;6.954;2022-10-30T18:34:15;18.70;61.40
5130;DHT22;2583;50.946;6.954;2022-10-30T18:36:42;18.60;63.50
5130;DHT22;2583;50.946;6.954;2022-10-30T18:39:10;18.50;65.80
5130;DHT22;2583;50.946;6.954;2022-10-30T18:41:43;18.40;69.50
5130;DHT22;2583;50.946;6.954;2022-10-30T18:44:17;18.50;68.50
5130;DHT22;2583;50.946;6.954;2022-10-30T18:46:44;18.40;71.00